Time;durP1;ratioP1;P1;durP2;ratioP2;P2;SDS_P1;SDS_P2;PMS_P1;PMS_P2;Temp;Humidity;BMP_temperature;BMP_pressure;BME280_temperature;BME280_humidity;BME280_pressure;Samples;Min_cycle;Max_cycle;Signal;HPM_P1;HPM_P2
2023/12/21 00:00:49;;;;;;;;;;;21.60;41.60;;;;;;3052981;19;6072;-72
2023/12/21 00:01:50;;;;;;;;;;;21.70;41.60;;;;;;3059035;19;5334;-72
2023/12/21 00:02:51;;;;;;;;;;;21.70;41.70;;;;;;3059219;19;5378;-72
2023/12/21 00:03:51;;;;;;;;;;;21.60;41.70;;;;;;3036883;19;4676;-72
2023/12/21 00:04:52;;;;;;;;;;;21.60;41.70;;;;;;3059116;19;5270;-71
2023/12/21 00:05:52;;;;;;;;;;;21.60;41.70;;;;;;3035772;19;4692;-72
2023/12/21 00:06:53;;;;;;;;;;;21.70;41.60;;;;;;3058766;19;5361;-72
2023/12/21 00:07:54;;;;;;;;;;;21.60;41.60;;;;;;3059346;19;5397;-72
2023/12/21 00:08:54;;;;;;;;;;;21.60;41.70;;;;;;3037747;19;5374;-72
2023/12/21 00:09:56;;;;;;;;;;;21.60;41.80;;;;;;3059586;19;5268;-72
2023/12/21 00:10:58;;;;;;;;;;;21.60;41.70;;;;;;3037938;19;4634;-71
2023/12/21 00:11:58;;;;;;;;;;;21.60;41.80;;;;;;3059167;19;5397;-72
2023/12/21 00:12:59;;;;;;;;;;;21.60;41.70;;;;;;3052701;19;5362;-72
2023/12/21 00:14:00;;;;;;;;;;;21.60;41.70;;;;;;3031657;19;5498;-74
2023/12/21 00:15:01;;;;;;;;;;;21.60;41.80;;;;;;3055148;19;5309;-72
2023/12/21 00:16:01;;;;;;;;;;;21.60;41.80;;;;;;3060145;19;5292;-71
2023/12/21 00:17:02;;;;;;;;;;;21.60;41.90;;;;;;3036774;19;5388;-73
2023/12/21 00:18:03;;;;;;;;;;;21.60;41.90;;;;;;3060469;19;1025;-71
2023/12/21 00:19:03;;;;;;;;;;;21.60;41.80;;;;;;3045148;19;4641;-72
2023/12/21 00:20:04;;;;;;;;;;;21.60;41.80;;;;;;3070004;19;5333;-72
2023/12/21 00:21:06;;;;;;;;;;;21.60;41.90;;;;;;3072369;19;5336;-71
2023/12/21 00:22:07;;;;;;;;;;;21.50;41.90;;;;;;3047780;19;20874;-72
2023/12/21 00:23:08;;;;;;;;;;;21.50;41.90;;;;;;3071945;19;4842;-72
2023/12/21 00:24:08;;;;;;;;;;;21.60;41.90;;;;;;3072107;19;5397;-73
2023/12/21 00:25:09;;;;;;;;;;;21.50;41.80;;;;;;3050180;19;5158;-71
2023/12/21 00:26:10;;;;;;;;;;;21.50;41.90;;;;;;3071723;19;5477;-72
2023/12/21 00:27:10;;;;;;;;;;;21.60;41.90;;;;;;3050112;19;4242;-71
2023/12/21 00:28:11;;;;;;;;;;;21.50;41.90;;;;;;3071668;19;5262;-71
2023/12/21 00:29:13;;;;;;;;;;;21.50;41.90;;;;;;3071516;19;6805;-71
2023/12/21 00:30:14;;;;;;;;;;;21.50;41.80;;;;;;3049164;19;5377;-72
2023/12/21 00:31:14;;;;;;;;;;;21.50;42.00;;;;;;3072989;19;4740;-81
2023/12/21 00:32:15;;;;;;;;;;;21.50;41.90;;;;;;3071287;19;5286;-80
2023/12/21 00:33:15;;;;;;;;;;;21.50;42.00;;;;;;3050159;19;21032;-81
2023/12/21 00:34:16;;;;;;;;;;;21.50;41.90;;;;;;3072515;19;5482;-82
2023/12/21 00:35:17;;;;;;;;;;;21.50;42.00;;;;;;3050038;19;5732;-77
2023/12/21 00:36:17;;;;;;;;;;;21.50;42.00;;;;;;3071883;19;5074;-82
2023/12/21 00:37:20;;;;;;;;;;;21.50;42.00;;;;;;3070824;19;5429;-82
2023/12/21 00:38:20;;;;;;;;;;;21.50;42.00;;;;;;3050750;19;5727;-81
2023/12/21 00:39:21;;;;;;;;;;;21.50;42.00;;;;;;3072081;19;5499;-80
2023/12/21 00:40:21;;;;;;;;;;;21.50;42.00;;;;;;3039319;19;5400;-72
2023/12/21 00:41:23;;;;;;;;;;;21.40;42.00;;;;;;3059851;19;5441;-72
2023/12/21 00:42:24;;;;;;;;;;;21.50;42.00;;;;;;3059823;19;5303;-72
2023/12/21 00:43:25;;;;;;;;;;;21.50;42.10;;;;;;3038046;19;5131;-72
2023/12/21 00:44:26;;;;;;;;;;;21.50;42.10;;;;;;3061384;19;4984;-72
2023/12/21 00:45:26;;;;;;;;;;;21.40;42.10;;;;;;3059356;19;4717;-71
2023/12/21 00:46:27;;;;;;;;;;;21.50;42.10;;;;;;3038143;19;5770;-72
2023/12/21 00:47:28;;;;;;;;;;;21.40;42.00;;;;;;3059015;19;5538;-71
2023/12/21 00:48:28;;;;;;;;;;;21.50;42.30;;;;;;3015722;19;4691;-70
2023/12/21 00:49:29;;;;;;;;;;;21.40;42.10;;;;;;3059425;19;5817;-71
2023/12/21 00:50:29;;;;;;;;;;;21.40;42.10;;;;;;3059380;19;5538;-81
2023/12/21 00:51:30;;;;;;;;;;;21.40;42.10;;;;;;3038565;19;5271;-82
2023/12/21 00:52:31;;;;;;;;;;;21.40;42.20;;;;;;3058204;19;4658;-81
2023/12/21 00:53:31;;;;;;;;;;;21.40;42.10;;;;;;3060736;19;5463;-80
2023/12/21 00:54:32;;;;;;;;;;;21.40;42.20;;;;;;3038480;19;5340;-82
2023/12/21 00:55:35;;;;;;;;;;;21.40;42.10;;;;;;3060291;19;4857;-81
2023/12/21 00:56:36;;;;;;;;;;;21.40;42.10;;;;;;3017473;19;5711;-81
2023/12/21 00:57:36;;;;;;;;;;;21.40;42.20;;;;;;3059946;19;6090;-81
2023/12/21 00:58:39;;;;;;;;;;;21.40;42.30;;;;;;3059702;19;5538;-80
2023/12/21 00:59:40;;;;;;;;;;;21.40;42.20;;;;;;3037992;19;5317;-81
2023/12/21 01:00:40;;;;;;;;;;;21.40;42.30;;;;;;3059828;19;5276;-68
2023/12/21 01:01:42;;;;;;;;;;;21.40;42.30;;;;;;3037113;19;5778;-68
2023/12/21 01:02:43;;;;;;;;;;;21.40;42.40;;;;;;3058684;19;5238;-68
2023/12/21 01:03:44;;;;;;;;;;;21.40;42.20;;;;;;3058613;19;5367;-68
2023/12/21 01:04:44;;;;;;;;;;;21.40;42.40;;;;;;3034359;19;6417;-67
2023/12/21 01:05:45;;;;;;;;;;;21.40;42.40;;;;;;3057682;19;6824;-68
2023/12/21 01:06:45;;;;;;;;;;;21.40;42.40;;;;;;3057886;19;5433;-68
2023/12/21 01:07:47;;;;;;;;;;;21.40;42.40;;;;;;3036267;19;4939;-67
2023/12/21 01:08:48;;;;;;;;;;;21.40;42.30;;;;;;3055876;19;5449;-66
2023/12/21 01:09:48;;;;;;;;;;;21.40;43.10;;;;;;3035733;19;5848;-67
2023/12/21 01:10:49;;;;;;;;;;;21.40;42.30;;;;;;3056861;19;5290;-67
2023/12/21 01:11:50;;;;;;;;;;;21.30;42.40;;;;;;3057173;19;5333;-68
2023/12/21 01:12:51;;;;;;;;;;;21.40;42.40;;;;;;3035438;19;4805;-68
2023/12/21 01:13:53;;;;;;;;;;;21.30;42.30;;;;;;3057689;19;5417;-67
2023/12/21 01:14:54;;;;;;;;;;;21.30;42.40;;;;;;3057715;19;5253;-67
2023/12/21 01:15:54;;;;;;;;;;;21.30;42.30;;;;;;3034166;19;5297;-67
2023/12/21 01:16:55;;;;;;;;;;;21.30;42.30;;;;;;3056004;19;5811;-67
2023/12/21 01:17:56;;;;;;;;;;;21.30;42.40;;;;;;3034609;19;5364;-68
2023/12/21 01:18:57;;;;;;;;;;;21.30;42.50;;;;;;3052110;19;5558;-67
2023/12/21 01:19:57;;;;;;;;;;;21.30;42.40;;;;;;3053603;19;5351;-67
2023/12/21 01:21:01;;;;;;;;;;;21.30;42.40;;;;;;3036116;19;5333;-67
2023/12/21 01:22:02;;;;;;;;;;;21.30;42.30;;;;;;3056791;19;4781;-68
2023/12/21 01:23:03;;;;;;;;;;;21.30;42.40;;;;;;3035369;19;5265;-67
2023/12/21 01:24:05;;;;;;;;;;;21.30;42.40;;;;;;3055707;19;5222;-67
2023/12/21 01:25:05;;;;;;;;;;;21.30;42.50;;;;;;3057767;19;952;-67
2023/12/21 01:26:06;;;;;;;;;;;21.30;42.40;;;;;;3034838;19;21110;-68
2023/12/21 01:27:07;;;;;;;;;;;21.30;42.40;;;;;;3055814;19;5448;-67
2023/12/21 01:28:09;;;;;;;;;;;21.30;42.30;;;;;;3057403;19;5409;-67
2023/12/21 01:29:09;;;;;;;;;;;21.30;42.40;;;;;;3035769;19;4817;-68
2023/12/21 01:30:12;;;;;;;;;;;21.30;42.50;;;;;;3056988;19;4895;-68
2023/12/21 01:31:13;;;;;;;;;;;21.30;42.60;;;;;;3035273;19;5311;-68
2023/12/21 01:32:13;;;;;;;;;;;21.30;42.60;;;;;;3056350;19;5382;-68
2023/12/21 01:33:14;;;;;;;;;;;21.30;42.40;;;;;;3056997;19;4882;-67
2023/12/21 01:34:15;;;;;;;;;;;21.30;42.50;;;;;;3036253;19;4226;-67
2023/12/21 01:35:15;;;;;;;;;;;21.30;42.60;;;;;;3054809;19;5623;-68
2023/12/21 01:36:17;;;;;;;;;;;21.20;42.50;;;;;;3045100;19;5330;-69
2023/12/21 01:37:18;;;;;;;;;;;21.30;42.60;;;;;;3056913;19;5241;-68
2023/12/21 01:38:20;;;;;;;;;;;21.30;42.60;;;;;;3057986;19;5408;-68
2023/12/21 01:39:20;;;;;;;;;;;21.20;42.50;;;;;;3036925;19;5291;-67
2023/12/21 01:40:22;;;;;;;;;;;21.20;42.40;;;;;;3056519;19;4784;-68
2023/12/21 01:41:24;;;;;;;;;;;21.20;42.60;;;;;;3057520;19;5374;-67
2023/12/21 01:42:24;;;;;;;;;;;21.20;42.60;;;;;;3036254;19;5157;-68
2023/12/21 01:43:25;;;;;;;;;;;21.20;42.60;;;;;;3057279;19;4769;-68
2023/12/21 01:44:27;;;;;;;;;;;21.20;43.30;;;;;;3036263;19;4721;-68
2023/12/21 01:45:28;;;;;;;;;;;21.20;42.60;;;;;;3057160;19;5645;-67
2023/12/21 01:46:29;;;;;;;;;;;21.20;42.60;;;;;;3057222;19;6465;-68
2023/12/21 01:47:29;;;;;;;;;;;21.20;42.70;;;;;;3035866;19;5190;-68
2023/12/21 01:48:31;;;;;;;;;;;21.20;42.60;;;;;;3057308;19;5441;-69
2023/12/21 01:49:31;;;;;;;;;;;21.20;42.60;;;;;;3056697;19;4755;-68
2023/12/21 01:50:33;;;;;;;;;;;21.10;42.60;;;;;;3036021;19;4837;-76
2023/12/21 01:51:33;;;;;;;;;;;21.20;42.70;;;;;;3059391;19;5394;-76
2023/12/21 01:52:34;;;;;;;;;;;21.20;42.70;;;;;;3036799;19;4986;-77
2023/12/21 01:53:36;;;;;;;;;;;21.20;42.70;;;;;;3058740;19;5466;-77
2023/12/21 01:54:36;;;;;;;;;;;21.20;42.60;;;;;;3057926;19;5307;-76
2023/12/21 01:55:38;;;;;;;;;;;21.20;42.70;;;;;;3035288;19;5665;-77
2023/12/21 01:56:39;;;;;;;;;;;21.20;42.60;;;;;;3055861;19;5412;-77
2023/12/21 01:57:40;;;;;;;;;;;21.20;42.60;;;;;;3032388;19;5276;-76
2023/12/21 01:58:41;;;;;;;;;;;21.10;42.60;;;;;;3057957;19;5425;-76
2023/12/21 01:59:43;;;;;;;;;;;21.10;42.60;;;;;;3057472;19;5766;-76
2023/12/21 02:00:44;;;;;;;;;;;21.10;42.70;;;;;;3035738;19;5495;-76
2023/12/21 02:01:45;;;;;;;;;;;21.20;42.70;;;;;;3058342;19;5420;-78
2023/12/21 02:02:46;;;;;;;;;;;21.10;42.70;;;;;;3058555;19;5815;-76
2023/12/21 02:03:46;;;;;;;;;;;21.10;42.70;;;;;;3035573;19;5252;-78
2023/12/21 02:04:48;;;;;;;;;;;21.10;42.70;;;;;;3055172;19;5371;-77
2023/12/21 02:05:51;;;;;;;;;;;21.10;42.70;;;;;;3036701;19;5211;-77
2023/12/21 02:06:53;;;;;;;;;;;21.10;42.80;;;;;;3059285;19;5601;-81
2023/12/21 02:07:53;;;;;;;;;;;21.10;42.70;;;;;;3059800;19;5350;-79
